createdAt,value
2019-02-27T00:00:06.380Z,7.08
2019-02-27T00:02:32.588Z,6.67
2019-02-27T00:04:58.767Z,7.28
2019-02-27T00:07:24.937Z,6.67
2019-02-27T00:09:51.121Z,5.70
2019-02-27T00:12:19.357Z,6.25
2019-02-27T00:14:45.212Z,5.45
2019-02-27T00:17:11.384Z,8.65
2019-02-27T00:19:37.588Z,7.35
2019-02-27T00:22:03.825Z,6.60
2019-02-27T00:24:30.597Z,9.63
2019-02-27T00:26:56.877Z,5.47
2019-02-27T00:29:23.056Z,5.75
2019-02-27T00:31:49.252Z,6.65
2019-02-27T00:34:15.444Z,8.53
2019-02-27T00:36:44.884Z,7.17
2019-02-27T00:39:09.521Z,8.63
2019-02-27T00:41:35.740Z,6.47
2019-02-27T00:44:02.013Z,6.87
2019-02-27T00:46:28.262Z,6.42
2019-02-27T00:48:54.469Z,7.85
2019-02-27T00:51:20.728Z,8.28
2019-02-27T00:53:46.900Z,6.62
2019-02-27T00:56:13.149Z,9.15
2019-02-27T00:58:39.340Z,7.62
2019-02-27T01:01:05.543Z,7.92
2019-02-27T01:03:31.743Z,6.03
2019-02-27T01:05:57.969Z,6.47
2019-02-27T01:08:25.129Z,6.05
2019-02-27T01:10:52.136Z,6.83
2019-02-27T01:13:18.312Z,7.60
2019-02-27T01:15:44.817Z,7.78
2019-02-27T01:18:11.048Z,6.00
2019-02-27T01:20:37.318Z,7.95
2019-02-27T01:23:03.500Z,8.05
2019-02-27T01:25:29.715Z,9.63
2019-02-27T01:27:55.889Z,9.28
2019-02-27T01:30:24.440Z,8.70
2019-02-27T01:32:50.066Z,7.28
2019-02-27T01:35:18.747Z,8.23
2019-02-27T01:37:44.137Z,7.87
2019-02-27T01:40:10.364Z,9.08
2019-02-27T01:42:36.543Z,8.10
2019-02-27T01:45:02.709Z,11.12
2019-02-27T01:47:28.912Z,9.23
2019-02-27T01:49:55.149Z,7.05
2019-02-27T01:52:21.321Z,9.18
2019-02-27T01:54:48.849Z,12.15
2019-02-27T01:57:15.415Z,9.98
2019-02-27T01:59:41.610Z,9.50
2019-02-27T02:02:07.785Z,11.25
2019-02-27T02:04:33.971Z,10.98
2019-02-27T02:07:00.170Z,10.00
2019-02-27T02:09:26.348Z,11.33
2019-02-27T02:11:52.524Z,8.00
2019-02-27T02:14:21.005Z,9.23
2019-02-27T02:16:46.682Z,13.38
2019-02-27T02:19:12.846Z,7.90
2019-02-27T02:21:39.133Z,8.88
2019-02-27T02:24:05.298Z,9.00
2019-02-27T02:26:32.147Z,11.25
2019-02-27T02:28:59.410Z,11.50
2019-02-27T02:31:25.656Z,6.33
2019-02-27T02:33:51.832Z,9.78
2019-02-27T02:36:18.044Z,10.90
2019-02-27T02:38:44.217Z,9.03
2019-02-27T02:41:10.468Z,12.33
2019-02-27T02:43:40.182Z,12.03
2019-02-27T02:46:08.002Z,8.95
2019-02-27T02:48:32.453Z,9.48
2019-02-27T02:50:58.709Z,11.10
2019-02-27T02:53:25.941Z,9.20
2019-02-27T02:55:52.245Z,10.30
2019-02-27T02:58:18.425Z,9.60
2019-02-27T03:00:44.605Z,8.45
2019-02-27T03:03:10.809Z,8.85
2019-02-27T03:05:36.976Z,9.53
2019-02-27T03:08:03.170Z,9.78
2019-02-27T03:10:29.426Z,9.70
2019-02-27T03:12:55.612Z,11.12
2019-02-27T03:15:21.800Z,7.67
2019-02-27T03:17:53.765Z,10.80
2019-02-27T03:20:17.620Z,9.65
2019-02-27T03:22:43.783Z,10.58
2019-02-27T03:25:09.966Z,9.88
2019-02-27T03:27:36.144Z,12.55
2019-02-27T03:30:02.462Z,8.10
2019-02-27T03:32:28.665Z,10.00
2019-02-27T03:34:54.813Z,9.10
2019-02-27T03:37:21.003Z,11.03
2019-02-27T03:39:47.245Z,9.20
2019-02-27T03:42:13.448Z,10.58
2019-02-27T03:44:39.631Z,10.65
2019-02-27T03:47:05.809Z,9.75
2019-02-27T03:49:32.104Z,10.85
2019-02-27T03:52:00.496Z,8.93
2019-02-27T03:54:26.163Z,9.45
2019-02-27T03:56:52.357Z,10.08
2019-02-27T03:59:18.536Z,9.70
2019-02-27T04:01:44.716Z,13.00
2019-02-27T04:04:10.921Z,9.33
2019-02-27T04:06:37.102Z,12.28
2019-02-27T04:09:03.271Z,9.45
2019-02-27T04:11:29.491Z,10.00
2019-02-27T04:14:03.342Z,12.53
2019-02-27T04:16:28.970Z,10.93
2019-02-27T04:18:51.486Z,7.17
2019-02-27T04:21:17.750Z,10.30
2019-02-27T04:23:47.830Z,9.33
2019-02-27T04:26:11.874Z,8.45
2019-02-27T04:28:38.054Z,8.48
2019-02-27T04:31:04.329Z,9.45
2019-02-27T04:33:30.576Z,11.88
2019-02-27T04:35:56.749Z,7.55
2019-02-27T04:38:25.017Z,9.88
2019-02-27T04:40:50.899Z,10.65
2019-02-27T04:43:17.080Z,10.38
2019-02-27T04:45:43.932Z,12.00
2019-02-27T04:48:11.154Z,8.55
2019-02-27T04:50:37.416Z,9.45
2019-02-27T04:53:03.595Z,12.58
2019-02-27T04:55:29.909Z,12.55
2019-02-27T04:57:56.081Z,13.38
2019-02-27T05:00:26.091Z,11.90
2019-02-27T05:02:53.131Z,10.30
2019-02-27T05:05:18.136Z,10.30
2019-02-27T05:07:45.197Z,14.10
2019-02-27T05:10:11.453Z,10.50
2019-02-27T05:12:37.630Z,11.97
2019-02-27T05:15:04.871Z,10.55
2019-02-27T05:17:31.378Z,13.20
2019-02-27T05:19:57.597Z,15.60
2019-02-27T05:22:26.244Z,15.55
2019-02-27T05:24:51.695Z,27.37
2019-02-27T05:27:17.874Z,16.87
2019-02-27T05:29:44.082Z,22.10
2019-02-27T05:32:10.261Z,28.25
2019-02-27T05:34:36.430Z,14.68
2019-02-27T05:37:05.106Z,13.85
2019-02-27T05:39:30.607Z,14.33
2019-02-27T05:41:56.777Z,18.62
2019-02-27T05:44:22.967Z,19.37
2019-02-27T05:46:49.141Z,13.70
2019-02-27T05:49:15.318Z,14.15
2019-02-27T05:51:41.607Z,11.83
2019-02-27T05:54:08.788Z,16.05
2019-02-27T05:56:34.982Z,14.47
2019-02-27T05:59:01.404Z,10.28
2019-02-27T06:01:27.574Z,12.90
2019-02-27T06:03:53.748Z,17.07
2019-02-27T06:06:20.206Z,15.03
2019-02-27T06:08:46.373Z,12.65
2019-02-27T06:11:12.611Z,15.35
2019-02-27T06:13:38.809Z,14.23
2019-02-27T06:16:08.852Z,13.20
2019-02-27T06:18:32.880Z,12.90
2019-02-27T06:20:59.097Z,12.98
2019-02-27T06:23:25.278Z,10.95
2019-02-27T06:25:51.451Z,15.93
2019-02-27T06:28:18.830Z,15.35
2019-02-27T06:30:45.619Z,17.05
2019-02-27T06:33:12.400Z,13.53
2019-02-27T06:35:38.675Z,15.32
2019-02-27T06:38:04.848Z,13.22
2019-02-27T06:40:31.048Z,19.05
2019-02-27T06:42:57.321Z,17.73
2019-02-27T06:45:23.508Z,20.75
2019-02-27T06:47:49.688Z,14.15
2019-02-27T06:50:15.897Z,18.10
2019-02-27T06:52:42.512Z,19.80
2019-02-27T06:55:09.249Z,15.60
2019-02-27T06:57:35.432Z,16.23
2019-02-27T07:00:03.010Z,13.50
2019-02-27T07:02:29.377Z,17.92
2019-02-27T07:04:55.574Z,15.28
2019-02-27T07:07:21.738Z,17.87
2019-02-27T07:09:47.989Z,15.10
2019-02-27T07:12:14.167Z,15.15
2019-02-27T07:14:40.347Z,15.60
2019-02-27T07:17:06.557Z,14.87
2019-02-27T07:19:32.766Z,14.23
2019-02-27T07:21:58.942Z,12.43
2019-02-27T07:24:25.136Z,17.55
2019-02-27T07:26:51.311Z,11.55
2019-02-27T07:29:21.570Z,12.98
2019-02-27T07:31:45.510Z,12.20
2019-02-27T07:34:14.208Z,13.22
2019-02-27T07:36:39.597Z,14.85
2019-02-27T07:39:05.810Z,13.80
2019-02-27T07:41:31.990Z,15.18
2019-02-27T07:43:58.197Z,14.83
2019-02-27T07:46:24.372Z,14.07
2019-02-27T07:48:50.546Z,12.88
2019-02-27T07:51:16.727Z,12.85
2019-02-27T07:53:42.907Z,12.37
2019-02-27T07:56:09.117Z,11.50
2019-02-27T07:58:35.302Z,16.77
2019-02-27T08:01:01.469Z,14.95
2019-02-27T08:03:27.680Z,13.68
2019-02-27T08:05:53.850Z,12.05
2019-02-27T08:08:23.238Z,14.68
2019-02-27T08:10:48.019Z,14.65
2019-02-27T08:13:14.190Z,10.95
2019-02-27T08:15:40.368Z,10.70
2019-02-27T08:18:06.740Z,11.05
2019-02-27T08:20:33.109Z,11.08
2019-02-27T08:22:59.311Z,11.05
2019-02-27T08:25:25.513Z,14.25
2019-02-27T08:27:51.694Z,11.80
2019-02-27T08:30:17.925Z,13.40
2019-02-27T08:32:44.123Z,14.68
2019-02-27T08:35:10.294Z,14.58
2019-02-27T08:37:36.473Z,11.08
2019-02-27T08:40:02.834Z,10.60
2019-02-27T08:42:29.012Z,17.37
2019-02-27T08:44:55.194Z,13.25
2019-02-27T08:47:21.397Z,10.13
2019-02-27T08:49:47.655Z,14.20
2019-02-27T08:52:16.096Z,11.35
2019-02-27T08:54:41.748Z,10.60
2019-02-27T08:57:07.923Z,12.40
2019-02-27T08:59:34.122Z,17.32
2019-02-27T09:02:02.044Z,19.30
2019-02-27T09:04:28.221Z,14.05
2019-02-27T09:06:54.393Z,14.75
2019-02-27T09:09:20.632Z,11.03
2019-02-27T09:11:46.786Z,15.43
2019-02-27T09:14:12.966Z,14.35
2019-02-27T09:16:39.161Z,12.40
2019-02-27T09:19:09.277Z,12.93
2019-02-27T09:21:33.277Z,11.20
2019-02-27T09:23:59.479Z,16.27
2019-02-27T09:26:25.649Z,18.00
2019-02-27T09:28:51.831Z,14.05
2019-02-27T09:31:18.036Z,17.15
2019-02-27T09:33:44.213Z,10.70
2019-02-27T09:36:10.987Z,11.20
2019-02-27T09:38:37.296Z,15.93
2019-02-27T09:41:03.468Z,22.95
2019-02-27T09:43:29.638Z,16.55
2019-02-27T09:45:55.841Z,15.83
2019-02-27T09:48:22.020Z,16.77
2019-02-27T09:50:49.109Z,13.38
2019-02-27T09:53:15.495Z,15.50
2019-02-27T09:55:41.672Z,18.52
2019-02-27T09:58:11.189Z,18.45
2019-02-27T10:00:35.818Z,12.80
2019-02-27T10:03:01.986Z,18.95
2019-02-27T10:05:28.158Z,11.83
2019-02-27T10:07:54.367Z,16.77
2019-02-27T10:10:20.602Z,14.35
2019-02-27T10:12:46.779Z,15.58
2019-02-27T10:15:12.985Z,13.88
2019-02-27T10:17:41.075Z,18.85
2019-02-27T10:20:07.153Z,14.00
2019-02-27T10:22:33.360Z,17.37
2019-02-27T10:24:59.535Z,16.67
2019-02-27T10:27:28.836Z,15.45
2019-02-27T10:29:53.641Z,12.98
2019-02-27T10:32:19.847Z,11.90
2019-02-27T10:34:46.026Z,13.80
2019-02-27T10:37:13.294Z,14.43
2019-02-27T10:39:40.161Z,13.38
2019-02-27T10:42:06.347Z,12.60
2019-02-27T10:44:33.962Z,13.28
2019-02-27T10:47:00.785Z,12.70
2019-02-27T10:49:27.129Z,13.62
2019-02-27T10:51:53.324Z,11.65
2019-02-27T10:54:19.498Z,13.50
2019-02-27T10:56:45.676Z,12.98
2019-02-27T10:59:11.978Z,12.55
2019-02-27T11:01:38.149Z,9.78
2019-02-27T11:04:04.328Z,12.53
2019-02-27T11:06:34.066Z,12.60
2019-02-27T11:08:58.500Z,12.03
2019-02-27T11:11:24.669Z,12.53
2019-02-27T11:13:52.104Z,12.33
2019-02-27T11:16:21.289Z,14.47
2019-02-27T11:18:46.666Z,10.70
2019-02-27T11:21:12.837Z,10.10
2019-02-27T11:23:41.113Z,11.08
2019-02-27T11:26:06.947Z,12.23
2019-02-27T11:28:33.147Z,10.88
2019-02-27T11:30:59.334Z,10.82
2019-02-27T11:33:26.177Z,12.23
2019-02-27T11:35:52.391Z,12.18
2019-02-27T11:38:18.570Z,12.35
2019-02-27T11:40:44.765Z,10.08
2019-02-27T11:43:10.944Z,11.97
2019-02-27T11:45:37.126Z,11.55
2019-02-27T11:48:03.340Z,11.90
2019-02-27T11:50:29.518Z,11.10
2019-02-27T11:52:55.688Z,9.50
2019-02-27T11:55:21.902Z,11.53
2019-02-27T11:57:48.070Z,9.63
2019-02-27T12:00:14.333Z,11.83
2019-02-27T12:02:40.536Z,13.48
2019-02-27T12:05:06.719Z,12.53
2019-02-27T12:07:32.895Z,12.70
2019-02-27T12:09:59.177Z,12.53
2019-02-27T12:12:25.365Z,10.90
2019-02-27T12:14:51.544Z,10.20
2019-02-27T12:17:17.753Z,10.45
2019-02-27T12:19:45.207Z,9.40
2019-02-27T12:22:11.572Z,9.78
2019-02-27T12:24:37.747Z,9.30
2019-02-27T12:27:03.925Z,10.48
2019-02-27T12:29:30.140Z,9.80
2019-02-27T12:31:56.326Z,10.38
2019-02-27T12:34:22.506Z,10.45
2019-02-27T12:36:49.945Z,9.75
2019-02-27T12:39:18.639Z,9.75
2019-02-27T12:41:44.569Z,10.78
2019-02-27T12:44:10.759Z,9.80
2019-02-27T12:46:37.141Z,13.35
2019-02-27T12:49:03.426Z,11.15
2019-02-27T12:51:29.631Z,10.75
2019-02-27T12:53:55.809Z,9.13
2019-02-27T12:56:21.997Z,9.58
2019-02-27T12:58:48.274Z,11.28
2019-02-27T13:01:16.323Z,11.48
2019-02-27T13:03:43.058Z,9.75
2019-02-27T13:06:09.345Z,7.90
2019-02-27T13:08:35.619Z,12.43
2019-02-27T13:11:01.790Z,10.88
2019-02-27T13:13:28.018Z,10.13
2019-02-27T13:15:54.198Z,9.63
2019-02-27T13:18:20.426Z,9.20
2019-02-27T13:20:46.632Z,10.78
2019-02-27T13:23:12.807Z,9.83
2019-02-27T13:25:38.980Z,9.45
2019-02-27T13:28:05.175Z,13.13
2019-02-27T13:30:31.340Z,9.88
2019-02-27T13:33:00.599Z,9.50
2019-02-27T13:35:25.431Z,13.40
2019-02-27T13:37:51.616Z,12.00
2019-02-27T13:40:17.796Z,10.43
2019-02-27T13:42:43.998Z,11.60
2019-02-27T13:45:12.631Z,13.18
2019-02-27T13:47:38.093Z,10.15
2019-02-27T13:50:04.289Z,9.65
2019-02-27T13:52:30.461Z,11.38
2019-02-27T13:54:56.629Z,10.90
2019-02-27T13:57:25.702Z,12.03
2019-02-27T13:59:50.738Z,10.38
2019-02-27T14:02:16.922Z,8.05
2019-02-27T14:04:43.124Z,11.88
2019-02-27T14:07:09.305Z,9.93
2019-02-27T14:09:35.548Z,11.35
2019-02-27T14:12:01.751Z,41.23
2019-02-27T14:14:27.925Z,37.98
2019-02-27T14:16:54.094Z,43.48
2019-02-27T14:19:21.353Z,43.48
2019-02-27T14:21:48.317Z,46.15
2019-02-27T14:24:14.501Z,46.02
2019-02-27T14:26:41.508Z,44.40
2019-02-27T14:29:08.450Z,45.67
2019-02-27T14:31:34.634Z,43.00
2019-02-27T14:34:00.839Z,40.58
2019-02-27T14:36:27.022Z,47.03
2019-02-27T14:38:55.893Z,41.25
2019-02-27T14:41:21.203Z,37.78
2019-02-27T14:43:47.375Z,33.45
2019-02-27T14:46:13.572Z,35.10
2019-02-27T14:48:39.861Z,36.30
2019-02-27T14:51:07.903Z,48.08
2019-02-27T14:53:33.946Z,53.23
2019-02-27T14:56:00.167Z,53.13
2019-02-27T14:58:26.382Z,51.73
2019-02-27T15:00:52.555Z,46.00
2019-02-27T15:03:18.748Z,46.70
2019-02-27T15:05:45.318Z,47.23
2019-02-27T15:08:11.706Z,53.48
2019-02-27T15:10:40.510Z,46.92
2019-02-27T15:13:05.826Z,43.68
2019-02-27T15:15:32.011Z,39.10
2019-02-27T15:17:58.298Z,37.73
2019-02-27T15:20:24.470Z,41.63
2019-02-27T15:22:52.509Z,51.10
2019-02-27T15:25:18.568Z,41.20
2019-02-27T15:27:44.737Z,43.10
2019-02-27T15:30:13.273Z,46.75
2019-02-27T15:32:38.830Z,45.78
2019-02-27T15:35:05.010Z,46.08
2019-02-27T15:37:31.190Z,45.48
2019-02-27T15:39:57.417Z,40.17
2019-02-27T15:42:23.599Z,32.88
2019-02-27T15:44:49.781Z,34.63
2019-02-27T15:47:15.978Z,37.28
2019-02-27T15:49:42.213Z,33.83
2019-02-27T15:52:08.386Z,33.67
2019-02-27T15:54:34.597Z,40.83
2019-02-27T15:57:00.781Z,34.75
2019-02-27T15:59:27.029Z,34.10
2019-02-27T16:01:53.263Z,32.65
2019-02-27T16:04:21.257Z,31.35
2019-02-27T16:06:47.306Z,36.15
2019-02-27T16:09:15.390Z,31.35
2019-02-27T16:11:41.422Z,30.12
2019-02-27T16:14:10.161Z,33.95
2019-02-27T16:16:35.506Z,30.10
2019-02-27T16:19:01.776Z,29.63
2019-02-27T16:21:27.949Z,27.07
2019-02-27T16:23:54.141Z,24.80
2019-02-27T16:26:20.323Z,29.23
2019-02-27T16:28:48.987Z,29.98
2019-02-27T16:31:14.518Z,23.98
2019-02-27T16:33:40.690Z,30.12
2019-02-27T16:36:06.873Z,31.80
2019-02-27T16:38:33.086Z,24.55
2019-02-27T16:40:59.256Z,29.45
2019-02-27T16:43:25.421Z,26.82
2019-02-27T16:45:51.625Z,22.82
2019-02-27T16:48:17.879Z,24.15
2019-02-27T16:50:45.579Z,26.82
2019-02-27T16:53:16.246Z,27.55
2019-02-27T16:55:39.839Z,24.57
2019-02-27T16:58:06.057Z,30.75
2019-02-27T17:00:32.258Z,22.58
2019-02-27T17:02:58.472Z,25.02
2019-02-27T17:05:24.598Z,25.77
2019-02-27T17:07:50.912Z,24.75
2019-02-27T17:10:17.756Z,28.57
2019-02-27T17:12:44.953Z,27.67
2019-02-27T17:15:11.155Z,23.38
2019-02-27T17:17:37.430Z,22.05
2019-02-27T17:20:03.612Z,24.30
2019-02-27T17:22:32.658Z,21.20
2019-02-27T17:24:57.685Z,21.60
2019-02-27T17:27:23.897Z,23.50
2019-02-27T17:29:50.087Z,21.37
2019-02-27T17:32:16.264Z,22.13
2019-02-27T17:34:42.455Z,22.93
2019-02-27T17:37:08.638Z,51.63
2019-02-27T17:39:34.818Z,27.07
2019-02-27T17:42:01.027Z,23.92
2019-02-27T17:44:27.196Z,27.45
2019-02-27T17:46:54.689Z,25.88
2019-02-27T17:49:22.163Z,25.45
2019-02-27T17:51:49.621Z,22.70
2019-02-27T17:54:16.161Z,46.33
2019-02-27T17:56:42.356Z,54.27
2019-02-27T17:59:09.377Z,97.12
2019-02-27T18:01:35.804Z,45.92
2019-02-27T18:04:02.003Z,49.03
2019-02-27T18:06:28.178Z,32.60
2019-02-27T18:08:54.385Z,32.40
2019-02-27T18:11:21.330Z,31.25
2019-02-27T18:13:47.796Z,27.93
2019-02-27T18:16:14.013Z,27.67
2019-02-27T18:18:43.313Z,21.60
2019-02-27T18:21:08.302Z,23.12
2019-02-27T18:23:34.471Z,22.13
2019-02-27T18:26:00.684Z,23.02
2019-02-27T18:28:26.891Z,19.27
2019-02-27T18:30:53.839Z,18.70
2019-02-27T18:33:20.207Z,20.95
2019-02-27T18:35:46.384Z,19.32
2019-02-27T18:38:12.620Z,19.23
2019-02-27T18:40:38.806Z,18.48
2019-02-27T18:43:04.986Z,19.10
2019-02-27T18:45:31.191Z,20.97
2019-02-27T18:47:58.647Z,21.23
2019-02-27T18:50:25.765Z,21.73
2019-02-27T18:52:52.060Z,17.57
2019-02-27T18:55:18.236Z,18.12
2019-02-27T18:57:47.268Z,18.77
2019-02-27T19:00:12.439Z,17.60
2019-02-27T19:02:38.747Z,18.17
2019-02-27T19:05:06.734Z,21.07
2019-02-27T19:07:33.379Z,18.80
2019-02-27T19:09:59.815Z,37.38
2019-02-27T19:12:28.598Z,47.70
2019-02-27T19:14:54.300Z,60.67
2019-02-27T19:17:20.504Z,56.48
2019-02-27T19:19:48.917Z,28.32
2019-02-27T19:22:15.666Z,33.30
2019-02-27T19:24:42.052Z,23.67
2019-02-27T19:27:10.481Z,21.20
2019-02-27T19:29:36.910Z,20.15
2019-02-27T19:32:03.073Z,18.62
2019-02-27T19:34:29.253Z,17.27
2019-02-27T19:36:55.458Z,15.95
2019-02-27T19:39:22.469Z,23.47
2019-02-27T19:41:48.780Z,20.20
2019-02-27T19:44:15.022Z,20.90
2019-02-27T19:46:42.312Z,16.02
2019-02-27T19:49:09.102Z,30.37
2019-02-27T19:51:35.289Z,19.82
2019-02-27T19:54:01.664Z,19.40
2019-02-27T19:56:27.847Z,34.80
2019-02-27T19:58:54.106Z,21.97
2019-02-27T20:01:20.289Z,25.25
2019-02-27T20:03:47.090Z,23.40
2019-02-27T20:06:13.425Z,26.77
2019-02-27T20:08:44.478Z,25.85
2019-02-27T20:11:07.801Z,21.73
2019-02-27T20:13:33.979Z,25.82
2019-02-27T20:16:00.153Z,20.10
2019-02-27T20:18:26.434Z,28.05
2019-02-27T20:20:52.611Z,25.20
2019-02-27T20:23:18.796Z,22.70
2019-02-27T20:25:45.015Z,25.72
2019-02-27T20:28:11.268Z,27.10
2019-02-27T20:30:37.441Z,27.35
2019-02-27T20:33:03.656Z,33.08
2019-02-27T20:35:31.134Z,28.55
2019-02-27T20:37:57.316Z,33.35
2019-02-27T20:40:23.610Z,33.65
2019-02-27T20:42:54.971Z,33.55
2019-02-27T20:45:18.693Z,37.10
2019-02-27T20:47:44.936Z,37.28
2019-02-27T20:50:11.110Z,32.65
2019-02-27T20:52:37.278Z,31.55
2019-02-27T20:55:03.520Z,30.00
2019-02-27T20:57:29.704Z,23.90
2019-02-27T21:00:00.651Z,18.35
2019-02-27T21:02:23.850Z,28.90
2019-02-27T21:04:50.019Z,22.10
2019-02-27T21:07:22.204Z,25.10
2019-02-27T21:09:45.193Z,22.10
2019-02-27T21:12:12.033Z,26.17
2019-02-27T21:14:38.206Z,24.47
2019-02-27T21:17:04.491Z,26.07
2019-02-27T21:19:30.662Z,22.15
2019-02-27T21:21:56.834Z,23.38
2019-02-27T21:24:23.025Z,22.00
2019-02-27T21:26:49.203Z,20.57
2019-02-27T21:29:15.487Z,30.02
2019-02-27T21:31:41.741Z,23.38
2019-02-27T21:34:07.915Z,21.27
2019-02-27T21:36:36.586Z,23.90
2019-02-27T21:39:02.022Z,25.62
2019-02-27T21:41:28.197Z,23.80
2019-02-27T21:43:56.583Z,19.90
2019-02-27T21:46:22.280Z,23.57
2019-02-27T21:48:48.515Z,19.65
2019-02-27T21:51:14.769Z,26.05
2019-02-27T21:53:40.941Z,23.70
2019-02-27T21:56:07.106Z,18.67
2019-02-27T21:58:33.362Z,18.25
2019-02-27T22:00:59.528Z,18.57
2019-02-27T22:03:25.865Z,19.07
2019-02-27T22:05:52.965Z,22.10
2019-02-27T22:08:19.984Z,22.00
2019-02-27T22:10:47.272Z,18.55
2019-02-27T22:13:13.472Z,22.22
2019-02-27T22:15:39.659Z,21.30
2019-02-27T22:18:08.288Z,19.32
2019-02-27T22:20:33.830Z,19.32
2019-02-27T22:23:00.003Z,19.23
2019-02-27T22:25:30.206Z,21.37
2019-02-27T22:27:54.324Z,20.00
2019-02-27T22:30:20.503Z,17.57
2019-02-27T22:32:48.182Z,18.52
2019-02-27T22:35:14.596Z,21.25
2019-02-27T22:37:40.779Z,17.77
2019-02-27T22:40:07.505Z,20.25
2019-02-27T22:42:33.831Z,20.30
2019-02-27T22:45:00.636Z,20.92
2019-02-27T22:47:27.985Z,20.97
2019-02-27T22:49:54.157Z,21.57
2019-02-27T22:52:20.895Z,23.25
2019-02-27T22:54:47.194Z,20.72
2019-02-27T22:57:13.377Z,27.27
2019-02-27T22:59:39.677Z,19.75
2019-02-27T23:02:05.841Z,20.52
2019-02-27T23:04:32.012Z,24.40
2019-02-27T23:06:58.242Z,32.70
2019-02-27T23:09:25.692Z,26.12
2019-02-27T23:11:52.294Z,28.27
2019-02-27T23:14:19.641Z,27.37
2019-02-27T23:16:46.866Z,24.02
2019-02-27T23:19:13.178Z,22.20
2019-02-27T23:21:39.333Z,22.17
2019-02-27T23:24:07.114Z,27.13
2019-02-27T23:26:33.434Z,19.32
2019-02-27T23:28:59.639Z,21.02
2019-02-27T23:31:25.817Z,19.00
2019-02-27T23:33:51.999Z,21.15
2019-02-27T23:36:18.216Z,24.37
2019-02-27T23:38:44.378Z,18.30
2019-02-27T23:41:10.571Z,19.87
2019-02-27T23:43:36.777Z,22.77
2019-02-27T23:46:02.954Z,18.55
2019-02-27T23:48:29.217Z,19.90
2019-02-27T23:50:55.409Z,18.00
2019-02-27T23:53:24.454Z,23.42
2019-02-27T23:55:49.500Z,25.12
2019-02-27T23:58:15.696Z,21.15
